Time;durP1;ratioP1;P1;durP2;ratioP2;P2;SDS_P1;SDS_P2;PMS_P1;PMS_P2;Temp;Humidity;BMP_temperature;BMP_pressure;BME280_temperature;BME280_humidity;BME280_pressure;Samples;Min_cycle;Max_cycle;Signal;HPM_P1;HPM_P2
2021/08/14 00:00:47;;;;;;;;;;;;;;;27.04;56.13;101324.09;5090096;28;1233;-72
2021/08/14 00:03:14;;;;;;;;;;;;;;;27.08;55.92;101320.16;5108348;28;842;-72
2021/08/14 00:05:41;;;;;;;;;;;;;;;27.07;55.87;101309.63;5123922;28;1265;-72
2021/08/14 00:08:07;;;;;;;;;;;;;;;27.10;55.23;101312.91;5089734;28;1910;-73
2021/08/14 00:10:34;;;;;;;;;;;;;;;27.07;55.24;101313.16;5108683;28;1169;-71
2021/08/14 00:13:01;;;;;;;;;;;;;;;27.07;55.12;101317.66;5108441;28;782;-71
2021/08/14 00:15:27;;;;;;;;;;;;;;;27.04;54.94;101299.19;5108243;28;1195;-71
2021/08/14 00:17:54;;;;;;;;;;;;;;;27.09;55.35;101316.53;5108495;28;792;-72
2021/08/14 00:20:20;;;;;;;;;;;;;;;27.10;54.92;101312.03;5108193;28;1318;-72
2021/08/14 00:22:47;;;;;;;;;;;;;;;27.11;54.91;101311.06;5090398;28;766;-72
2021/08/14 00:25:14;;;;;;;;;;;;;;;27.07;55.11;101299.78;5107259;28;1325;-72
2021/08/14 00:27:41;;;;;;;;;;;;;;;27.08;55.09;101309.47;5108142;28;861;-72
2021/08/14 00:30:08;;;;;;;;;;;;;;;27.06;55.20;101308.78;5108061;28;1212;-73
2021/08/14 00:32:35;;;;;;;;;;;;;;;27.03;55.11;101301.00;5108067;28;849;-72
2021/08/14 00:35:01;;;;;;;;;;;;;;;27.01;55.19;101296.75;5107992;28;1232;-72
2021/08/14 00:37:28;;;;;;;;;;;;;;;27.04;55.09;101285.81;5089662;28;1545;-72
2021/08/14 00:39:55;;;;;;;;;;;;;;;27.02;55.14;101285.09;5111282;28;1561;-72
2021/08/14 00:42:21;;;;;;;;;;;;;;;27.00;55.14;101285.22;5112292;28;1223;-72
2021/08/14 00:44:48;;;;;;;;;;;;;;;27.00;55.09;101284.38;5111921;28;1198;-72
2021/08/14 00:47:15;;;;;;;;;;;;;;;26.99;55.05;101286.19;5112369;28;1080;-73
2021/08/14 00:49:42;;;;;;;;;;;;;;;26.98;54.75;101280.97;5111468;28;1914;-72
2021/08/14 00:52:08;;;;;;;;;;;;;;;27.00;54.70;101273.66;5111739;28;1308;-72
2021/08/14 00:54:35;;;;;;;;;;;;;;;27.00;54.55;101269.19;5093354;28;1123;-72
2021/08/14 00:57:02;;;;;;;;;;;;;;;27.02;54.27;101253.03;5111970;28;1236;-73
2021/08/14 00:59:29;;;;;;;;;;;;;;;27.04;54.10;101259.06;5111620;28;1084;-72
2021/08/14 01:01:58;;;;;;;;;;;;;;;27.01;54.10;101243.28;5093758;28;1286;-72
2021/08/14 01:04:26;;;;;;;;;;;;;;;27.00;54.11;101250.47;5111771;28;1006;-72
2021/08/14 01:06:53;;;;;;;;;;;;;;;26.97;54.35;101248.03;5093076;28;1207;-72
2021/08/14 01:09:20;;;;;;;;;;;;;;;26.94;54.10;101242.09;5092539;28;1970;-72
2021/08/14 01:11:47;;;;;;;;;;;;;;;26.96;54.08;101241.00;5111983;28;1350;-72
2021/08/14 01:14:13;;;;;;;;;;;;;;;26.93;54.08;101245.78;5093569;28;846;-72
2021/08/14 01:16:41;;;;;;;;;;;;;;;26.96;54.19;101243.66;5111560;28;1248;-71
2021/08/14 01:19:08;;;;;;;;;;;;;;;27.00;53.78;101236.25;5111211;28;1076;-71
2021/08/14 01:21:35;;;;;;;;;;;;;;;26.96;54.16;101237.50;5111517;28;1354;-72
2021/08/14 01:24:02;;;;;;;;;;;;;;;26.95;53.85;101233.97;5111150;28;1067;-73
2021/08/14 01:26:29;;;;;;;;;;;;;;;27.00;53.60;101228.22;5110780;28;1208;-71
2021/08/14 01:28:56;;;;;;;;;;;;;;;26.99;53.64;101229.22;5111041;28;1914;-72
2021/08/14 01:31:22;;;;;;;;;;;;;;;26.98;53.50;101239.06;5111033;28;1303;-72
2021/08/14 01:33:49;;;;;;;;;;;;;;;26.99;53.25;101237.25;5092704;28;778;-70
2021/08/14 01:36:17;;;;;;;;;;;;;;;26.96;53.02;101224.13;5110589;28;1315;-71
2021/08/14 01:38:43;;;;;;;;;;;;;;;26.98;52.95;101215.00;5110560;28;1203;-73
2021/08/14 01:41:10;;;;;;;;;;;;;;;26.96;52.70;101211.59;5092766;28;1179;-72
2021/08/14 01:43:55;;;;;;;;;;;;;;;26.92;52.58;101212.00;5110905;28;1084;-72
2021/08/14 01:46:23;;;;;;;;;;;;;;;26.95;52.46;101206.38;5111254;28;1228;-73
2021/08/14 01:48:49;;;;;;;;;;;;;;;26.95;51.91;101201.88;5110344;28;1992;-73
2021/08/14 01:51:16;;;;;;;;;;;;;;;26.98;51.68;101201.63;5110660;28;1318;-73
2021/08/14 01:53:50;;;;;;;;;;;;;;;26.97;51.57;101199.94;5110491;28;1152;-73
2021/08/14 01:56:17;;;;;;;;;;;;;;;26.96;51.48;101200.88;5126128;27;1249;-74
2021/08/14 01:58:44;;;;;;;;;;;;;;;26.98;51.36;101198.97;5109402;28;1340;-73
2021/08/14 02:01:11;;;;;;;;;;;;;;;26.93;51.28;101197.66;5126241;27;1265;-73
2021/08/14 02:03:38;;;;;;;;;;;;;;;26.92;51.34;101202.16;5110268;28;1099;-72
2021/08/14 02:06:06;;;;;;;;;;;;;;;26.92;51.28;101201.28;5110627;28;1237;-72
2021/08/14 02:08:34;;;;;;;;;;;;;;;26.88;51.27;101194.50;5110315;28;1914;-72
2021/08/14 02:11:01;;;;;;;;;;;;;;;26.85;51.84;101200.09;5092462;28;1338;-71
2021/08/14 02:13:28;;;;;;;;;;;;;;;26.84;51.67;101201.09;5110769;28;790;-72
2021/08/14 02:15:55;;;;;;;;;;;;;;;26.88;51.58;101194.50;5110537;28;1256;-73
2021/08/14 02:18:22;;;;;;;;;;;;;;;26.85;51.83;101187.59;5110019;28;1076;-70
2021/08/14 02:20:48;;;;;;;;;;;;;;;26.86;51.57;101185.78;5109873;28;1659;-73
2021/08/14 02:23:15;;;;;;;;;;;;;;;26.90;51.44;101181.88;5092141;28;1044;-73
2021/08/14 02:25:42;;;;;;;;;;;;;;;26.90;50.90;101184.56;5110067;28;1235;-73
2021/08/14 02:28:08;;;;;;;;;;;;;;;26.91;50.97;101199.59;5109897;28;797;-73
2021/08/14 02:30:35;;;;;;;;;;;;;;;26.83;51.11;101191.38;5109803;28;1925;-73
2021/08/14 02:33:01;;;;;;;;;;;;;;;26.83;51.22;101183.34;5109715;28;1185;-73
2021/08/14 02:35:28;;;;;;;;;;;;;;;26.86;51.19;101186.63;5091255;28;1230;-72
2021/08/14 02:37:55;;;;;;;;;;;;;;;26.84;51.18;101193.09;5109809;28;785;-72
2021/08/14 02:40:22;;;;;;;;;;;;;;;26.83;51.11;101192.22;5109589;28;1341;-73
2021/08/14 02:42:49;;;;;;;;;;;;;;;26.87;50.41;101176.78;5091451;28;818;-72
2021/08/14 02:45:16;;;;;;;;;;;;;;;26.87;51.25;101184.81;5091107;28;1437;-72
2021/08/14 02:47:43;;;;;;;;;;;;;;;26.85;50.36;101173.38;5091334;28;992;-72
2021/08/14 02:50:10;;;;;;;;;;;;;;;26.86;50.51;101175.09;5109320;28;1905;-72
2021/08/14 02:52:37;;;;;;;;;;;;;;;26.84;50.45;101177.06;5109738;28;865;-73
2021/08/14 02:55:04;;;;;;;;;;;;;;;26.80;50.52;101187.16;5109148;28;1240;-73
2021/08/14 02:57:30;;;;;;;;;;;;;;;26.81;50.60;101188.81;5109313;28;837;-72
2021/08/14 02:59:57;;;;;;;;;;;;;;;26.86;50.42;101180.44;5124854;27;1244;-72
2021/08/14 03:02:23;;;;;;;;;;;;;;;26.90;50.08;101187.22;5108749;28;1152;-72
2021/08/14 03:04:50;;;;;;;;;;;;;;;26.85;50.13;101184.91;5109323;28;1192;-72
2021/08/14 03:07:17;;;;;;;;;;;;;;;26.83;50.47;101170.00;5090601;28;1161;-72
2021/08/14 03:09:44;;;;;;;;;;;;;;;26.85;50.42;101178.72;5108202;28;1971;-72
2021/08/14 03:12:10;;;;;;;;;;;;;;;26.81;50.22;101178.13;5109653;28;1220;-72
2021/08/14 03:14:38;;;;;;;;;;;;;;;26.79;50.12;101173.88;5109263;28;884;-73
2021/08/14 03:17:05;;;;;;;;;;;;;;;26.80;50.15;101175.59;5109504;28;1241;-73
2021/08/14 03:19:32;;;;;;;;;;;;;;;26.81;50.05;101167.44;5124826;27;1167;-73
2021/08/14 03:21:59;;;;;;;;;;;;;;;26.79;49.77;101166.69;5090841;28;1315;-73
2021/08/14 03:24:26;;;;;;;;;;;;;;;26.79;49.59;101169.38;5108709;28;1131;-73
2021/08/14 03:26:53;;;;;;;;;;;;;;;26.82;50.48;101162.94;5109473;28;1267;-73
2021/08/14 03:29:19;;;;;;;;;;;;;;;26.81;50.12;101155.94;5108821;28;1914;-72
2021/08/14 03:31:46;;;;;;;;;;;;;;;26.77;49.75;101144.59;5090630;28;1253;-71
2021/08/14 03:34:13;;;;;;;;;;;;;;;26.73;49.78;101153.00;5108955;28;885;-72
2021/08/14 03:36:39;;;;;;;;;;;;;;;26.70;50.27;101159.44;5108523;28;1221;-72
2021/08/14 03:39:06;;;;;;;;;;;;;;;26.75;49.86;101151.88;5108554;28;1359;-73
2021/08/14 03:41:34;;;;;;;;;;;;;;;26.78;50.15;101150.81;5109072;28;1228;-74
2021/08/14 03:44:02;;;;;;;;;;;;;;;26.76;50.49;101148.25;5108740;28;1040;-72
2021/08/14 03:46:29;;;;;;;;;;;;;;;26.76;49.83;101142.91;5090328;28;1248;-72
2021/08/14 03:48:55;;;;;;;;;;;;;;;26.79;50.09;101147.13;5108640;28;1992;-71
2021/08/14 03:51:22;;;;;;;;;;;;;;;26.78;49.97;101143.59;5092230;28;1239;-70
2021/08/14 03:53:49;;;;;;;;;;;;;;;26.76;50.48;101147.41;5110191;28;707;-71
2021/08/14 03:56:16;;;;;;;;;;;;;;;26.80;49.98;101143.53;5090727;28;1240;-72
2021/08/14 03:58:42;;;;;;;;;;;;;;;26.76;50.11;101150.06;5108544;28;1075;-72
2021/08/14 04:01:09;;;;;;;;;;;;;;;26.73;50.14;101158.34;5108492;28;1342;-72
2021/08/14 04:03:36;;;;;;;;;;;;;;;26.70;50.59;101153.25;5089930;28;1265;-73
2021/08/14 04:06:03;;;;;;;;;;;;;;;26.77;49.95;101157.13;5089942;28;1350;-70
2021/08/14 04:08:29;;;;;;;;;;;;;;;26.73;50.11;101148.50;5108389;28;1054;-70
2021/08/14 04:10:56;;;;;;;;;;;;;;;26.77;50.06;101149.09;5124091;28;1905;-72
2021/08/14 04:13:23;;;;;;;;;;;;;;;26.76;50.46;101150.91;5110755;28;1198;-71
2021/08/14 04:15:49;;;;;;;;;;;;;;;26.75;50.21;101151.06;5094174;28;1668;-71
2021/08/14 04:18:16;;;;;;;;;;;;;;;26.77;50.06;101149.09;5112424;28;1083;-71
2021/08/14 04:20:43;;;;;;;;;;;;;;;26.79;50.56;101152.47;5111574;28;1322;-71
2021/08/14 04:23:09;;;;;;;;;;;;;;;26.76;50.16;101150.06;5094274;28;892;-73
2021/08/14 04:25:36;;;;;;;;;;;;;;;26.73;50.60;101153.00;5112412;28;1236;-72
2021/08/14 04:28:03;;;;;;;;;;;;;;;26.69;50.74;101147.06;5112470;28;1030;-72
2021/08/14 04:30:30;;;;;;;;;;;;;;;26.76;49.88;101152.75;5094121;28;2012;-72
2021/08/14 04:32:56;;;;;;;;;;;;;;;26.70;50.47;101151.44;5112056;28;1075;-72
2021/08/14 04:35:23;;;;;;;;;;;;;;;26.70;50.38;101146.09;5093492;28;1548;-72
2021/08/14 04:37:50;;;;;;;;;;;;;;;26.73;50.06;101147.66;5111924;28;1048;-71
2021/08/14 04:40:17;;;;;;;;;;;;;;;26.73;50.38;101155.66;5112079;28;1720;-72
2021/08/14 04:42:43;;;;;;;;;;;;;;;26.66;50.78;101152.66;5111935;28;1192;-72
2021/08/14 04:45:11;;;;;;;;;;;;;;;26.72;49.90;101146.81;5111606;28;1292;-71
2021/08/14 04:47:37;;;;;;;;;;;;;;;26.67;49.78;101148.16;5111510;28;1255;-71
2021/08/14 04:50:06;;;;;;;;;;;;;;;26.67;49.64;101142.81;5111476;28;1906;-72
2021/08/14 04:52:33;;;;;;;;;;;;;;;26.68;49.87;101142.72;5093366;28;1813;-73
2021/08/14 04:54:59;;;;;;;;;;;;;;;26.67;49.43;101142.81;5111323;28;1224;-72
2021/08/14 04:57:26;;;;;;;;;;;;;;;26.62;49.99;101145.91;5111569;28;1107;-72
2021/08/14 04:59:53;;;;;;;;;;;;;;;26.69;49.19;101151.59;5111503;28;1424;-73
2021/08/14 05:02:20;;;;;;;;;;;;;;;26.67;49.71;101145.50;5111861;28;876;-72
2021/08/14 05:04:46;;;;;;;;;;;;;;;26.66;49.74;101146.50;5111421;28;1182;-72
2021/08/14 05:07:13;;;;;;;;;;;;;;;26.68;49.77;101149.88;5111653;28;1358;-72
2021/08/14 05:09:40;;;;;;;;;;;;;;;26.66;49.59;101152.66;5111229;28;1971;-72
2021/08/14 05:12:07;;;;;;;;;;;;;;;26.67;50.10;101158.84;5108093;28;1482;-72
2021/08/14 05:14:35;;;;;;;;;;;;;;;26.71;49.47;101160.31;5052457;28;1418;-71
2021/08/14 05:17:02;;;;;;;;;;;;;;;26.75;49.34;101164.44;5085447;28;1479;-72
2021/08/14 05:19:29;;;;;;;;;;;;;;;26.75;50.40;101173.25;5072294;28;1263;-72
2021/08/14 05:21:55;;;;;;;;;;;;;;;26.74;49.76;101176.94;5106624;28;1362;-72
2021/08/14 05:24:22;;;;;;;;;;;;;;;26.71;50.15;101181.69;5089487;28;1079;-72
2021/08/14 05:26:49;;;;;;;;;;;;;;;26.69;50.34;101176.44;5067903;28;1244;-71
2021/08/14 05:29:15;;;;;;;;;;;;;;;26.67;50.23;101178.41;5090461;28;1975;-73
2021/08/14 05:31:42;;;;;;;;;;;;;;;26.68;50.71;101179.28;5090707;28;1311;-72
2021/08/14 05:34:09;;;;;;;;;;;;;;;26.67;51.31;101182.91;5090529;28;810;-72
2021/08/14 05:36:35;;;;;;;;;;;;;;;26.68;51.58;101188.13;5072294;28;1618;-72
2021/08/14 05:39:02;;;;;;;;;;;;;;;26.63;53.42;101184.16;5082958;28;1306;-73
2021/08/14 05:41:29;;;;;;;;;;;;;;;26.70;54.17;101182.66;5090596;28;1314;-71
2021/08/14 05:43:56;;;;;;;;;;;;;;;26.74;54.39;101192.13;5090747;28;776;-72
2021/08/14 05:46:22;;;;;;;;;;;;;;;26.74;54.86;101186.78;5090322;28;1315;-74
2021/08/14 05:48:49;;;;;;;;;;;;;;;26.76;55.23;101191.00;5090193;28;774;-72
2021/08/14 05:51:16;;;;;;;;;;;;;;;26.74;55.68;101190.28;5090218;28;1913;-75
2021/08/14 05:53:43;;;;;;;;;;;;;;;26.78;55.59;101190.91;5090408;28;1146;-73
2021/08/14 05:56:09;;;;;;;;;;;;;;;26.78;55.26;101183.69;5088599;28;1241;-73
2021/08/14 05:58:36;;;;;;;;;;;;;;;26.80;55.59;101178.28;5088976;28;842;-73
2021/08/14 06:01:03;;;;;;;;;;;;;;;26.77;55.84;101175.81;5089925;28;1282;-72
2021/08/14 06:03:34;;;;;;;;;;;;;;;26.72;56.37;101194.91;5090017;28;778;-73
2021/08/14 06:06:02;;;;;;;;;;;;;;;26.74;56.23;101195.66;5090163;28;1313;-72
2021/08/14 06:08:30;;;;;;;;;;;;;;;26.74;56.60;101192.13;5090110;28;1071;-72
2021/08/14 06:10:57;;;;;;;;;;;;;;;26.77;56.01;101194.53;5071810;28;1984;-73
2021/08/14 06:13:24;;;;;;;;;;;;;;;26.75;56.54;101194.66;5090094;28;1027;-72
2021/08/14 06:15:51;;;;;;;;;;;;;;;26.82;56.29;101192.34;5088110;28;1253;-72
2021/08/14 06:18:17;;;;;;;;;;;;;;;26.82;56.36;101195.03;5089388;28;806;-72
2021/08/14 06:20:44;;;;;;;;;;;;;;;26.79;56.42;101200.59;5089699;28;1230;-71
2021/08/14 06:23:11;;;;;;;;;;;;;;;26.80;56.46;101203.19;5097449;28;1550;-68
2021/08/14 06:25:38;;;;;;;;;;;;;;;26.78;56.96;101196.25;5107446;28;1537;-67
2021/08/14 06:28:04;;;;;;;;;;;;;;;26.77;57.09;101203.41;5108377;28;1391;-67
2021/08/14 06:30:31;;;;;;;;;;;;;;;26.79;56.96;101205.94;5108761;28;1984;-68
2021/08/14 06:32:58;;;;;;;;;;;;;;;26.81;56.24;101204.03;5109485;28;1690;-67
2021/08/14 06:35:25;;;;;;;;;;;;;;;26.85;55.46;101205.44;5109328;28;1438;-68
2021/08/14 06:37:51;;;;;;;;;;;;;;;26.82;55.40;101205.72;5107629;28;1043;-67
2021/08/14 06:40:18;;;;;;;;;;;;;;;26.85;55.01;101200.97;5109475;28;1518;-69
2021/08/14 06:42:45;;;;;;;;;;;;;;;26.84;54.59;101203.78;5110176;28;854;-68
2021/08/14 06:45:12;;;;;;;;;;;;;;;26.84;54.13;101195.75;5109236;28;1248;-66
2021/08/14 06:47:38;;;;;;;;;;;;;;;26.91;53.95;101204.94;5109508;28;774;-71
2021/08/14 06:50:06;;;;;;;;;;;;;;;26.89;53.75;101209.56;5108591;28;1958;-69
2021/08/14 06:52:35;;;;;;;;;;;;;;;26.91;53.44;101210.28;5108610;28;1363;-70
2021/08/14 06:55:02;;;;;;;;;;;;;;;26.92;53.23;101209.31;5124356;27;1623;-70
2021/08/14 06:57:29;;;;;;;;;;;;;;;26.94;53.49;101210.03;5108945;28;1561;-70
2021/08/14 06:59:56;;;;;;;;;;;;;;;26.95;53.56;101214.41;5108756;28;1363;-72
2021/08/14 07:02:22;;;;;;;;;;;;;;;26.94;53.25;101212.69;5108301;28;1514;-69
2021/08/14 07:04:49;;;;;;;;;;;;;;;26.93;53.10;101208.34;5109098;28;1310;-70
2021/08/14 07:07:17;;;;;;;;;;;;;;;26.94;53.03;101202.00;5109803;28;1123;-70
2021/08/14 07:09:44;;;;;;;;;;;;;;;26.97;53.50;101209.75;5108843;28;1984;-67
2021/08/14 07:12:10;;;;;;;;;;;;;;;27.02;53.32;101207.56;5109698;28;1215;-70
2021/08/14 07:14:37;;;;;;;;;;;;;;;27.01;53.05;101208.53;5109418;28;771;-67
2021/08/14 07:17:04;;;;;;;;;;;;;;;27.04;53.19;101205.59;5109503;28;1381;-69
2021/08/14 07:19:31;;;;;;;;;;;;;;;27.03;53.35;101201.22;5109428;28;1234;-69
2021/08/14 07:21:58;;;;;;;;;;;;;;;27.02;53.33;101199.56;5109589;28;1251;-69
2021/08/14 07:24:24;;;;;;;;;;;;;;;27.09;54.23;101200.69;5108580;28;1210;-68
2021/08/14 07:26:51;;;;;;;;;;;;;;;27.13;54.02;101208.34;5108636;28;1294;-67
2021/08/14 07:29:18;;;;;;;;;;;;;;;27.12;53.62;101203.97;5108739;28;853;-68
2021/08/14 07:31:44;;;;;;;;;;;;;;;27.13;54.24;101212.84;5109025;28;1971;-68
2021/08/14 07:34:11;;;;;;;;;;;;;;;27.13;54.16;101218.19;5124141;27;1282;-68
2021/08/14 07:36:38;;;;;;;;;;;;;;;27.15;53.97;101224.25;5108751;28;1324;-69
2021/08/14 07:39:06;;;;;;;;;;;;;;;27.18;54.27;101218.63;5090243;28;1270;-70
2021/08/14 07:41:33;;;;;;;;;;;;;;;27.19;54.25;101217.66;5115388;27;1792;-70
2021/08/14 07:44:01;;;;;;;;;;;;;;;27.19;53.89;101220.34;5111404;27;1149;-71
2021/08/14 07:46:45;;;;;;;;;;;;;;;27.21;54.22;101218.38;5127568;27;1334;-72
2021/08/14 07:49:12;;;;;;;;;;;;;;;27.22;54.02;101214.72;5131615;27;1273;-72
2021/08/14 07:51:39;;;;;;;;;;;;;;;27.22;54.04;101212.06;5107542;28;1905;-72
2021/08/14 07:54:06;;;;;;;;;;;;;;;27.24;54.25;101217.28;5088715;28;858;-72
2021/08/14 07:56:33;;;;;;;;;;;;;;;27.28;54.26;101214.22;5108857;28;1291;-71
2021/08/14 07:58:59;;;;;;;;;;;;;;;27.27;54.02;101204.47;5127662;28;774;-71
2021/08/14 08:01:26;;;;;;;;;;;;;;;27.29;53.87;101202.53;5127800;27;1256;-71
2021/08/14 08:03:54;;;;;;;;;;;;;;;27.31;54.19;101208.59;5127968;28;1515;-71
2021/08/14 08:06:21;;;;;;;;;;;;;;;27.41;53.81;101204.16;5127695;27;1234;-66
2021/08/14 08:08:48;;;;;;;;;;;;;;;27.37;54.30;101196.50;5126730;28;1027;-69
2021/08/14 08:11:15;;;;;;;;;;;;;;;27.38;54.02;101187.53;5127305;27;1955;-67
2021/08/14 08:13:41;;;;;;;;;;;;;;;27.45;54.29;101202.94;5125031;28;1352;-66
2021/08/14 08:16:08;;;;;;;;;;;;;;;27.41;54.76;101206.84;5107021;28;1279;-66
2021/08/14 08:18:35;;;;;;;;;;;;;;;27.36;54.57;101210.88;5106964;28;1091;-63
2021/08/14 08:21:01;;;;;;;;;;;;;;;27.38;54.88;101212.44;5107180;28;1195;-64
2021/08/14 08:23:28;;;;;;;;;;;;;;;27.37;54.48;101210.75;5106791;28;1138;-63
2021/08/14 08:25:55;;;;;;;;;;;;;;;27.39;54.40;101215.97;5106957;28;1325;-64
2021/08/14 08:28:23;;;;;;;;;;;;;;;27.41;54.26;101220.22;5088383;28;1755;-62
2021/08/14 08:30:50;;;;;;;;;;;;;;;27.44;54.32;101214.63;5106881;28;1975;-64
2021/08/14 08:33:16;;;;;;;;;;;;;;;27.51;54.23;101220.31;5107017;28;806;-64
2021/08/14 08:35:43;;;;;;;;;;;;;;;27.46;54.72;101217.16;5106692;28;1224;-64
2021/08/14 08:38:10;;;;;;;;;;;;;;;27.47;54.77;101213.50;5106372;28;1390;-64
2021/08/14 08:40:38;;;;;;;;;;;;;;;27.45;54.82;101216.31;5106579;28;1271;-63
2021/08/14 08:43:05;;;;;;;;;;;;;;;27.42;54.46;101218.38;5107062;28;814;-68
2021/08/14 08:45:32;;;;;;;;;;;;;;;27.42;54.28;101219.25;5107306;28;1322;-68
2021/08/14 08:47:59;;;;;;;;;;;;;;;27.49;54.23;101217.75;5110511;28;1145;-66
2021/08/14 08:50:27;;;;;;;;;;;;;;;27.55;54.28;101221.72;5126912;27;1986;-64
2021/08/14 08:52:54;;;;;;;;;;;;;;;27.58;54.74;101216.09;5108710;28;1123;-64
2021/08/14 08:55:22;;;;;;;;;;;;;;;27.61;54.55;101224.72;5126632;27;1206;-63
2021/08/14 08:57:49;;;;;;;;;;;;;;;27.58;54.78;101219.63;5127380;28;1043;-65
2021/08/14 09:00:16;;;;;;;;;;;;;;;27.52;55.16;101222.81;5129253;27;1330;-62
2021/08/14 09:02:44;;;;;;;;;;;;;;;27.54;55.42;101230.75;5112238;27;1672;-64
2021/08/14 09:05:16;;;;;;;;;;;;;;;27.55;54.57;101233.25;5130799;27;1216;-65
2021/08/14 09:07:49;;;;;;;;;;;;;;;27.56;55.30;101223.41;5112433;27;1068;-63
2021/08/14 09:10:18;;;;;;;;;;;;;;;27.55;54.93;101222.56;5129989;27;1922;-63
2021/08/14 09:12:45;;;;;;;;;;;;;;;27.59;54.64;101223.16;5130827;27;821;-67
2021/08/14 09:15:19;;;;;;;;;;;;;;;27.64;54.74;101221.75;5146267;27;1243;-66
2021/08/14 09:17:47;;;;;;;;;;;;;;;27.58;55.38;101233.00;5130833;27;844;-63
2021/08/14 09:20:15;;;;;;;;;;;;;;;27.59;56.04;101229.34;5130598;27;1383;-62
2021/08/14 09:22:44;;;;;;;;;;;;;;;27.60;56.64;101224.84;5130493;27;861;-64
2021/08/14 09:25:11;;;;;;;;;;;;;;;27.62;55.89;101221.06;5111717;27;1277;-67
2021/08/14 09:28:00;;;;;;;;;;;;;;;27.63;56.84;101222.72;5129845;27;1247;-62
2021/08/14 09:30:45;;;;;;;;;;;;;;;27.63;57.02;101221.91;5129805;27;1910;-63
2021/08/14 09:33:23;;;;;;;;;;;;;;;27.63;55.97;101219.22;5111735;27;1195;-63
2021/08/14 09:36:01;;;;;;;;;;;;;;;27.69;55.89;101218.69;5130563;27;1370;-61
2021/08/14 09:38:41;;;;;;;;;;;;;;;27.72;55.51;101209.56;5129986;27;1394;-63
2021/08/14 09:41:09;;;;;;;;;;;;;;;27.70;55.87;101212.34;5125249;27;1331;-62
2021/08/14 09:43:36;;;;;;;;;;;;;;;27.65;56.10;101212.75;5112038;27;1157;-63
2021/08/14 09:46:04;;;;;;;;;;;;;;;27.63;56.60;101214.69;5124171;27;1297;-65
2021/08/14 09:48:31;;;;;;;;;;;;;;;27.64;56.57;101218.22;5092885;27;1250;-63
2021/08/14 09:50:58;;;;;;;;;;;;;;;27.65;55.65;101217.25;5126151;27;1992;-63
2021/08/14 09:53:25;;;;;;;;;;;;;;;27.64;56.23;101224.44;5123228;27;1005;-61
2021/08/14 09:56:08;;;;;;;;;;;;;;;27.68;55.74;101211.66;5114958;27;1291;-64
2021/08/14 09:58:35;;;;;;;;;;;;;;;27.72;56.34;101213.06;5106408;27;1329;-64
2021/08/14 10:01:03;;;;;;;;;;;;;;;27.75;56.66;101207.47;5113010;27;1602;-65
2021/08/14 10:03:31;;;;;;;;;;;;;;;27.77;56.02;101205.47;5123721;27;1169;-65
2021/08/14 10:05:59;;;;;;;;;;;;;;;27.74;56.42;101199.53;5117883;27;1271;-65
2021/08/14 10:08:27;;;;;;;;;;;;;;;27.70;56.74;101212.34;5116718;27;1199;-64
2021/08/14 10:10:54;;;;;;;;;;;;;;;27.68;56.72;101211.66;5101910;28;1985;-64
2021/08/14 10:13:21;;;;;;;;;;;;;;;27.68;56.76;101201.78;5110791;27;1328;-65
2021/08/14 10:15:49;;;;;;;;;;;;;;;27.67;56.68;101189.38;5106135;27;1326;-64
2021/08/14 10:18:17;;;;;;;;;;;;;;;27.71;56.92;101194.47;5109838;27;1101;-66
2021/08/14 10:20:44;;;;;;;;;;;;;;;27.71;56.73;101191.78;5119949;27;1385;-66
2021/08/14 10:23:12;;;;;;;;;;;;;;;27.75;56.32;101190.53;5113229;27;1219;-68
2021/08/14 10:25:42;;;;;;;;;;;;;;;27.73;56.47;101184.47;5111575;27;1288;-68
2021/08/14 10:28:09;;;;;;;;;;;;;;;27.75;56.41;101186.03;5112057;27;1236;-74
2021/08/14 10:30:37;;;;;;;;;;;;;;;27.72;56.38;101178.28;5105921;28;1981;-71
2021/08/14 10:33:05;;;;;;;;;;;;;;;27.64;55.80;101186.13;5101266;27;1156;-70
2021/08/14 10:35:35;;;;;;;;;;;;;;;27.53;55.26;101183.53;5117020;27;1276;-71
2021/08/14 10:38:03;;;;;;;;;;;;;;;27.53;55.41;101180.88;5127264;27;1144;-67
2021/08/14 10:40:48;;;;;;;;;;;;;;;27.49;55.62;101174.94;5114280;27;1256;-71
2021/08/14 10:43:15;;;;;;;;;;;;;;;27.48;55.51;101170.56;5119040;27;1175;-73
2021/08/14 10:45:42;;;;;;;;;;;;;;;27.47;54.98;101166.22;5124879;27;1271;-72
2021/08/14 10:48:08;;;;;;;;;;;;;;;27.41;54.63;101150.66;5113373;27;1140;-72
2021/08/14 10:50:35;;;;;;;;;;;;;;;27.40;55.51;101158.81;5124638;27;1913;-72
2021/08/14 10:53:11;;;;;;;;;;;;;;;27.35;54.60;101153.00;5112412;27;1256;-71
2021/08/14 10:55:38;;;;;;;;;;;;;;;27.37;54.89;101153.72;5125536;27;1304;-75
2021/08/14 10:58:18;;;;;;;;;;;;;;;27.34;55.87;101148.63;5099154;27;1177;-69
2021/08/14 11:00:45;;;;;;;;;;;;;;;27.36;54.75;101149.38;5115717;27;1346;-71
2021/08/14 11:03:13;;;;;;;;;;;;;;;27.35;54.46;101145.00;5110050;28;762;-72
2021/08/14 11:05:41;;;;;;;;;;;;;;;27.33;54.77;101145.09;5109857;28;1236;-71
2021/08/14 11:08:24;;;;;;;;;;;;;;;27.32;54.64;101142.59;5109199;28;826;-72
2021/08/14 11:10:51;;;;;;;;;;;;;;;27.29;54.42;101142.84;5109276;28;1906;-73
2021/08/14 11:13:36;;;;;;;;;;;;;;;27.27;54.50;101142.16;5109042;28;1628;-72
2021/08/14 11:16:03;;;;;;;;;;;;;;;27.30;53.93;101147.22;5108651;27;1287;-70
2021/08/14 11:18:48;;;;;;;;;;;;;;;27.25;54.05;101136.06;5089285;28;1091;-70
2021/08/14 11:21:15;;;;;;;;;;;;;;;27.24;53.85;101132.53;5106570;28;1521;-71
2021/08/14 11:23:58;;;;;;;;;;;;;;;27.26;53.69;101127.91;5119641;27;1302;-71
2021/08/14 11:26:32;;;;;;;;;;;;;;;27.27;53.91;101131.44;5088638;28;1356;-69
2021/08/14 11:28:59;;;;;;;;;;;;;;;27.31;53.67;101127.50;5107191;28;1545;-70
2021/08/14 11:31:27;;;;;;;;;;;;;;;27.30;53.65;101126.66;5117884;27;1937;-69
2021/08/14 11:34:00;;;;;;;;;;;;;;;27.29;53.48;101124.13;5110880;27;1104;-71
2021/08/14 11:36:29;;;;;;;;;;;;;;;27.28;53.07;101128.63;5087629;28;1577;-71
2021/08/14 11:39:02;;;;;;;;;;;;;;;27.28;53.58;101127.78;5088270;28;1679;-68
2021/08/14 11:41:29;;;;;;;;;;;;;;;27.24;53.16;101121.84;5107479;28;1283;-68
2021/08/14 11:44:01;;;;;;;;;;;;;;;27.26;52.91;101113.69;5106148;28;1090;-66
2021/08/14 11:46:28;;;;;;;;;;;;;;;27.27;52.92;101113.53;5107222;28;1346;-69
2021/08/14 11:48:59;;;;;;;;;;;;;;;27.27;52.79;101110.88;5121141;27;1212;-69
2021/08/14 11:51:27;;;;;;;;;;;;;;;27.27;52.86;101108.19;5123362;27;1905;-69
2021/08/14 11:54:10;;;;;;;;;;;;;;;27.26;52.54;101109.19;5107072;28;1584;-69
2021/08/14 11:56:38;;;;;;;;;;;;;;;27.24;52.70;101104.97;5106751;28;1215;-68
2021/08/14 11:59:05;;;;;;;;;;;;;;;27.28;52.97;101107.22;5087393;28;1264;-73
2021/08/14 12:01:31;;;;;;;;;;;;;;;27.34;52.93;101106.69;5106854;28;1299;-69
2021/08/14 12:03:59;;;;;;;;;;;;;;;27.34;52.71;101096.00;5088075;28;1308;-69
2021/08/14 12:06:30;;;;;;;;;;;;;;;27.31;52.64;101096.25;5106750;28;1275;-70
2021/08/14 12:08:57;;;;;;;;;;;;;;;27.33;52.95;101098.81;5107121;28;1224;-73
2021/08/14 12:11:26;;;;;;;;;;;;;;;27.38;53.29;101092.06;5107000;28;1914;-73
2021/08/14 12:14:12;;;;;;;;;;;;;;;27.37;53.38;101093.03;5106834;28;1229;-72
2021/08/14 12:16:40;;;;;;;;;;;;;;;27.36;53.51;101090.53;5105498;28;1287;-71
2021/08/14 12:19:13;;;;;;;;;;;;;;;27.35;53.43;101092.34;5106736;28;1118;-70
2021/08/14 12:21:40;;;;;;;;;;;;;;;27.37;53.36;101079.66;5108761;28;1288;-68
2021/08/14 12:24:07;;;;;;;;;;;;;;;27.37;53.43;101084.16;5106900;28;1247;-69
2021/08/14 12:26:34;;;;;;;;;;;;;;;27.38;53.64;101086.72;5106967;28;1256;-68
2021/08/14 12:29:10;;;;;;;;;;;;;;;27.38;53.86;101085.88;5103770;28;1267;-68
2021/08/14 12:31:47;;;;;;;;;;;;;;;27.43;53.85;101081.84;5105333;28;1910;-68
2021/08/14 12:34:21;;;;;;;;;;;;;;;27.40;53.50;101084.75;5106700;28;1225;-73
2021/08/14 12:36:58;;;;;;;;;;;;;;;27.48;54.20;101074.25;5091609;28;1298;-71
2021/08/14 12:39:42;;;;;;;;;;;;;;;27.50;54.02;101082.16;5104610;28;1601;-70
2021/08/14 12:42:21;;;;;;;;;;;;;;;27.49;53.87;101072.41;5101182;28;1381;-74
2021/08/14 12:44:48;;;;;;;;;;;;;;;27.51;53.83;101073.97;5100802;28;1232;-72
2021/08/14 12:47:28;;;;;;;;;;;;;;;27.51;53.79;101071.28;5099349;28;1295;-69
2021/08/14 12:50:07;;;;;;;;;;;;;;;27.49;53.46;101064.38;5100145;28;1296;-73
2021/08/14 12:52:34;;;;;;;;;;;;;;;27.44;53.77;101070.16;5088962;28;1967;-70